Terminal Aerodrome Forecast
Issued by NWS

Home | Current Version | Previous Version | Text Only | Print | Product List | Glossary On
Versions: 1 2 3 4 5 6 7 8 9 10 11 12 13 14 15 16 17 18
684
FTUS41 KBGM 271336 AAA
TAFRME
TAF AMD
KRME 271336Z 2714/2812 23005KT 5SM -SHRA BR SCT012 OVC025
      TEMPO 2714/2718 2SM SHRA BR OVC012
     FM272000 27005KT P6SM BKN035 OVC070
     FM280000 VRB04KT P6SM BKN100=

USA.gov is the U.S. government's official web portal to all federal, state and local government web resources and services.